sensor_id;sensor_type;location;lat;lon;timestamp;P1;durP1;ratioP1;P2;durP2;ratioP2
13435;SDS011;6790;49.520;8.504;2022-09-02T00:01:48;6.70;;;5.00;;
13435;SDS011;6790;49.520;8.504;2022-09-02T00:04:19;5.63;;;5.03;;
13435;SDS011;6790;49.520;8.504;2022-09-02T00:06:49;6.47;;;5.10;;
13435;SDS011;6790;49.520;8.504;2022-09-02T00:09:19;6.33;;;5.40;;
13435;SDS011;6790;49.520;8.504;2022-09-02T00:11:49;5.40;;;4.90;;
13435;SDS011;6790;49.520;8.504;2022-09-02T00:14:20;5.97;;;4.47;;
13435;SDS011;6790;49.520;8.504;2022-09-02T00:16:54;5.20;;;4.60;;
13435;SDS011;6790;49.520;8.504;2022-09-02T00:19:21;5.30;;;4.80;;
13435;SDS011;6790;49.520;8.504;2022-09-02T00:21:50;5.40;;;4.87;;
13435;SDS011;6790;49.520;8.504;2022-09-02T00:24:18;5.97;;;5.37;;
13435;SDS011;6790;49.520;8.504;2022-09-02T00:26:44;6.63;;;5.40;;
13435;SDS011;6790;49.520;8.504;2022-09-02T00:29:10;5.40;;;4.90;;
13435;SDS011;6790;49.520;8.504;2022-09-02T00:31:38;7.17;;;6.40;;
13435;SDS011;6790;49.520;8.504;2022-09-02T00:34:08;7.93;;;6.67;;
13435;SDS011;6790;49.520;8.504;2022-09-02T00:36:35;6.00;;;5.40;;
13435;SDS011;6790;49.520;8.504;2022-09-02T00:39:01;6.47;;;5.13;;
13435;SDS011;6790;49.520;8.504;2022-09-02T00:41:28;5.80;;;5.10;;
13435;SDS011;6790;49.520;8.504;2022-09-02T00:44:00;6.73;;;4.83;;
13435;SDS011;6790;49.520;8.504;2022-09-02T00:46:31;5.07;;;4.40;;
13435;SDS011;6790;49.520;8.504;2022-09-02T00:49:09;5.70;;;4.70;;
13435;SDS011;6790;49.520;8.504;2022-09-02T00:54:35;5.17;;;4.67;;
13435;SDS011;6790;49.520;8.504;2022-09-02T00:57:10;5.27;;;4.77;;
13435;SDS011;6790;49.520;8.504;2022-09-02T01:02:51;4.77;;;4.27;;
13435;SDS011;6790;49.520;8.504;2022-09-02T01:05:20;5.20;;;4.40;;
13435;SDS011;6790;49.520;8.504;2022-09-02T01:07:48;5.20;;;4.70;;
13435;SDS011;6790;49.520;8.504;2022-09-02T01:10:16;5.23;;;4.60;;
13435;SDS011;6790;49.520;8.504;2022-09-02T01:12:46;5.30;;;4.80;;
13435;SDS011;6790;49.520;8.504;2022-09-02T01:15:12;5.37;;;4.73;;
13435;SDS011;6790;49.520;8.504;2022-09-02T01:17:45;12.63;;;4.40;;
13435;SDS011;6790;49.520;8.504;2022-09-02T01:20:14;6.10;;;4.90;;
13435;SDS011;6790;49.520;8.504;2022-09-02T01:22:48;5.47;;;4.97;;
13435;SDS011;6790;49.520;8.504;2022-09-02T01:25:16;5.80;;;4.67;;
13435;SDS011;6790;49.520;8.504;2022-09-02T01:27:44;4.77;;;4.37;;
13435;SDS011;6790;49.520;8.504;2022-09-02T01:30:13;5.70;;;4.50;;
13435;SDS011;6790;49.520;8.504;2022-09-02T01:32:46;6.20;;;4.70;;
13435;SDS011;6790;49.520;8.504;2022-09-02T01:35:12;4.83;;;4.33;;
13435;SDS011;6790;49.520;8.504;2022-09-02T01:37:39;6.13;;;4.70;;
13435;SDS011;6790;49.520;8.504;2022-09-02T01:40:06;5.00;;;4.50;;
13435;SDS011;6790;49.520;8.504;2022-09-02T01:42:35;5.57;;;4.50;;
13435;SDS011;6790;49.520;8.504;2022-09-02T01:45:03;6.13;;;4.83;;
13435;SDS011;6790;49.520;8.504;2022-09-02T01:47:29;5.13;;;4.43;;
13435;SDS011;6790;49.520;8.504;2022-09-02T01:49:56;6.80;;;4.50;;
13435;SDS011;6790;49.520;8.504;2022-09-02T01:52:23;5.87;;;5.07;;
13435;SDS011;6790;49.520;8.504;2022-09-02T01:54:51;6.40;;;4.90;;
13435;SDS011;6790;49.520;8.504;2022-09-02T01:57:17;5.10;;;4.60;;
13435;SDS011;6790;49.520;8.504;2022-09-02T01:59:43;5.53;;;5.03;;
13435;SDS011;6790;49.520;8.504;2022-09-02T02:02:10;8.23;;;5.47;;
13435;SDS011;6790;49.520;8.504;2022-09-02T02:04:37;7.03;;;5.30;;
13435;SDS011;6790;49.520;8.504;2022-09-02T02:07:03;5.70;;;4.73;;
13435;SDS011;6790;49.520;8.504;2022-09-02T02:09:29;6.13;;;5.03;;
13435;SDS011;6790;49.520;8.504;2022-09-02T02:11:55;5.20;;;4.70;;
13435;SDS011;6790;49.520;8.504;2022-09-02T02:14:21;5.87;;;4.53;;
13435;SDS011;6790;49.520;8.504;2022-09-02T02:16:47;5.50;;;4.80;;
13435;SDS011;6790;49.520;8.504;2022-09-02T02:19:14;5.93;;;5.33;;
13435;SDS011;6790;49.520;8.504;2022-09-02T02:21:40;5.63;;;4.73;;
13435;SDS011;6790;49.520;8.504;2022-09-02T02:24:06;7.30;;;5.00;;
13435;SDS011;6790;49.520;8.504;2022-09-02T02:26:33;6.07;;;4.90;;
13435;SDS011;6790;49.520;8.504;2022-09-02T02:29:00;5.43;;;4.77;;
13435;SDS011;6790;49.520;8.504;2022-09-02T02:31:25;4.93;;;4.50;;
13435;SDS011;6790;49.520;8.504;2022-09-02T02:33:51;6.17;;;4.33;;
13435;SDS011;6790;49.520;8.504;2022-09-02T02:36:17;5.10;;;4.40;;
13435;SDS011;6790;49.520;8.504;2022-09-02T02:38:44;5.70;;;4.47;;
13435;SDS011;6790;49.520;8.504;2022-09-02T02:41:11;5.40;;;4.90;;
13435;SDS011;6790;49.520;8.504;2022-09-02T02:43:38;5.47;;;4.93;;
13435;SDS011;6790;49.520;8.504;2022-09-02T02:46:04;5.77;;;4.77;;
13435;SDS011;6790;49.520;8.504;2022-09-02T02:48:31;4.90;;;4.27;;
13435;SDS011;6790;49.520;8.504;2022-09-02T02:50:58;8.20;;;4.70;;
13435;SDS011;6790;49.520;8.504;2022-09-02T02:53:25;7.03;;;5.10;;
13435;SDS011;6790;49.520;8.504;2022-09-02T02:55:53;5.23;;;4.67;;
13435;SDS011;6790;49.520;8.504;2022-09-02T02:58:19;5.23;;;4.67;;
13435;SDS011;6790;49.520;8.504;2022-09-02T03:00:45;6.43;;;4.37;;
13435;SDS011;6790;49.520;8.504;2022-09-02T03:03:12;5.53;;;4.90;;
13435;SDS011;6790;49.520;8.504;2022-09-02T03:05:43;6.40;;;4.97;;
13435;SDS011;6790;49.520;8.504;2022-09-02T03:08:10;7.40;;;5.00;;
13435;SDS011;6790;49.520;8.504;2022-09-02T03:10:37;5.80;;;4.73;;
13435;SDS011;6790;49.520;8.504;2022-09-02T03:13:06;5.73;;;4.97;;
13435;SDS011;6790;49.520;8.504;2022-09-02T03:15:34;5.07;;;4.47;;
13435;SDS011;6790;49.520;8.504;2022-09-02T03:18:01;5.70;;;4.97;;
13435;SDS011;6790;49.520;8.504;2022-09-02T03:20:27;5.77;;;4.97;;
13435;SDS011;6790;49.520;8.504;2022-09-02T03:22:54;5.37;;;4.87;;
13435;SDS011;6790;49.520;8.504;2022-09-02T03:25:23;5.20;;;4.40;;
13435;SDS011;6790;49.520;8.504;2022-09-02T03:27:52;6.10;;;5.00;;
13435;SDS011;6790;49.520;8.504;2022-09-02T03:30:19;10.53;;;4.70;;
13435;SDS011;6790;49.520;8.504;2022-09-02T03:32:52;5.77;;;4.90;;
13435;SDS011;6790;49.520;8.504;2022-09-02T03:35:19;4.40;;;4.00;;
13435;SDS011;6790;49.520;8.504;2022-09-02T03:37:47;5.03;;;4.53;;
13435;SDS011;6790;49.520;8.504;2022-09-02T03:40:15;4.63;;;4.13;;
13435;SDS011;6790;49.520;8.504;2022-09-02T03:42:47;5.10;;;4.30;;
13435;SDS011;6790;49.520;8.504;2022-09-02T03:45:13;4.90;;;4.40;;
13435;SDS011;6790;49.520;8.504;2022-09-02T03:47:40;4.83;;;4.17;;
13435;SDS011;6790;49.520;8.504;2022-09-02T03:50:19;6.33;;;4.80;;
13435;SDS011;6790;49.520;8.504;2022-09-02T03:52:49;9.10;;;4.57;;
13435;SDS011;6790;49.520;8.504;2022-09-02T03:55:16;4.40;;;3.77;;
13435;SDS011;6790;49.520;8.504;2022-09-02T03:57:43;5.30;;;4.43;;
13435;SDS011;6790;49.520;8.504;2022-09-02T04:00:10;6.40;;;4.97;;
13435;SDS011;6790;49.520;8.504;2022-09-02T04:02:38;4.83;;;4.17;;
13435;SDS011;6790;49.520;8.504;2022-09-02T04:05:04;5.07;;;4.57;;
13435;SDS011;6790;49.520;8.504;2022-09-02T04:07:31;7.57;;;5.20;;
13435;SDS011;6790;49.520;8.504;2022-09-02T04:09:56;6.00;;;4.87;;
13435;SDS011;6790;49.520;8.504;2022-09-02T04:12:23;5.40;;;4.83;;
13435;SDS011;6790;49.520;8.504;2022-09-02T04:14:48;5.77;;;5.07;;
13435;SDS011;6790;49.520;8.504;2022-09-02T04:17:14;4.27;;;3.70;;
13435;SDS011;6790;49.520;8.504;2022-09-02T04:19:40;5.33;;;4.83;;
13435;SDS011;6790;49.520;8.504;2022-09-02T04:22:06;5.03;;;4.53;;
13435;SDS011;6790;49.520;8.504;2022-09-02T04:24:32;4.87;;;3.93;;
13435;SDS011;6790;49.520;8.504;2022-09-02T04:26:58;5.73;;;4.27;;
13435;SDS011;6790;49.520;8.504;2022-09-02T04:29:24;5.63;;;4.40;;
13435;SDS011;6790;49.520;8.504;2022-09-02T04:31:50;4.40;;;4.00;;
13435;SDS011;6790;49.520;8.504;2022-09-02T04:34:17;4.50;;;4.10;;
13435;SDS011;6790;49.520;8.504;2022-09-02T04:36:43;5.17;;;3.83;;
13435;SDS011;6790;49.520;8.504;2022-09-02T04:39:09;13.87;;;4.77;;
13435;SDS011;6790;49.520;8.504;2022-09-02T04:41:35;4.10;;;3.67;;
13435;SDS011;6790;49.520;8.504;2022-09-02T04:44:01;5.37;;;4.33;;
13435;SDS011;6790;49.520;8.504;2022-09-02T04:46:28;4.90;;;4.13;;
13435;SDS011;6790;49.520;8.504;2022-09-02T04:48:54;4.87;;;4.37;;
13435;SDS011;6790;49.520;8.504;2022-09-02T04:51:21;4.17;;;3.77;;
13435;SDS011;6790;49.520;8.504;2022-09-02T04:53:51;5.23;;;4.53;;
13435;SDS011;6790;49.520;8.504;2022-09-02T04:56:19;5.07;;;4.10;;
13435;SDS011;6790;49.520;8.504;2022-09-02T04:58:49;5.80;;;4.90;;
13435;SDS011;6790;49.520;8.504;2022-09-02T05:01:49;4.57;;;4.07;;
13435;SDS011;6790;49.520;8.504;2022-09-02T05:04:07;5.23;;;4.30;;
13435;SDS011;6790;49.520;8.504;2022-09-02T05:06:33;4.97;;;4.40;;
13435;SDS011;6790;49.520;8.504;2022-09-02T05:09:00;6.73;;;4.50;;
13435;SDS011;6790;49.520;8.504;2022-09-02T05:11:28;6.20;;;4.50;;
13435;SDS011;6790;49.520;8.504;2022-09-02T05:13:58;5.17;;;4.67;;
13435;SDS011;6790;49.520;8.504;2022-09-02T05:16:29;5.10;;;4.53;;
13435;SDS011;6790;49.520;8.504;2022-09-02T05:19:00;5.60;;;4.30;;
13435;SDS011;6790;49.520;8.504;2022-09-02T05:21:28;5.20;;;4.63;;
13435;SDS011;6790;49.520;8.504;2022-09-02T05:23:55;7.13;;;4.73;;
13435;SDS011;6790;49.520;8.504;2022-09-02T05:26:22;6.03;;;4.73;;
13435;SDS011;6790;49.520;8.504;2022-09-02T05:28:49;5.33;;;4.20;;
13435;SDS011;6790;49.520;8.504;2022-09-02T05:31:15;5.20;;;4.63;;
13435;SDS011;6790;49.520;8.504;2022-09-02T05:33:43;5.27;;;4.77;;
13435;SDS011;6790;49.520;8.504;2022-09-02T05:36:11;5.97;;;4.30;;
13435;SDS011;6790;49.520;8.504;2022-09-02T05:38:45;5.43;;;4.43;;
13435;SDS011;6790;49.520;8.504;2022-09-02T05:41:13;5.37;;;4.87;;
13435;SDS011;6790;49.520;8.504;2022-09-02T05:43:42;6.97;;;4.43;;
13435;SDS011;6790;49.520;8.504;2022-09-02T05:46:10;6.43;;;4.90;;
13435;SDS011;6790;49.520;8.504;2022-09-02T05:48:41;5.80;;;5.23;;
13435;SDS011;6790;49.520;8.504;2022-09-02T05:51:27;6.40;;;5.37;;
13435;SDS011;6790;49.520;8.504;2022-09-02T05:53:53;10.20;;;5.20;;
13435;SDS011;6790;49.520;8.504;2022-09-02T05:56:21;5.80;;;4.70;;
13435;SDS011;6790;49.520;8.504;2022-09-02T05:58:48;6.10;;;5.23;;
13435;SDS011;6790;49.520;8.504;2022-09-02T06:01:15;6.10;;;5.50;;
13435;SDS011;6790;49.520;8.504;2022-09-02T06:03:43;6.10;;;4.67;;
13435;SDS011;6790;49.520;8.504;2022-09-02T06:06:10;5.63;;;4.27;;
13435;SDS011;6790;49.520;8.504;2022-09-02T06:08:36;4.37;;;3.97;;
13435;SDS011;6790;49.520;8.504;2022-09-02T06:11:03;4.90;;;4.40;;
13435;SDS011;6790;49.520;8.504;2022-09-02T06:13:36;4.30;;;3.90;;
13435;SDS011;6790;49.520;8.504;2022-09-02T06:16:05;5.67;;;4.30;;
13435;SDS011;6790;49.520;8.504;2022-09-02T06:18:34;3.83;;;3.33;;
13435;SDS011;6790;49.520;8.504;2022-09-02T06:21:01;5.43;;;3.87;;
13435;SDS011;6790;49.520;8.504;2022-09-02T06:23:29;5.07;;;3.67;;
13435;SDS011;6790;49.520;8.504;2022-09-02T06:25:55;4.10;;;3.70;;
13435;SDS011;6790;49.520;8.504;2022-09-02T06:28:21;3.70;;;3.40;;
13435;SDS011;6790;49.520;8.504;2022-09-02T06:30:46;4.10;;;3.70;;
13435;SDS011;6790;49.520;8.504;2022-09-02T06:33:12;4.73;;;4.23;;
13435;SDS011;6790;49.520;8.504;2022-09-02T06:35:39;4.50;;;3.93;;
13435;SDS011;6790;49.520;8.504;2022-09-02T06:38:08;5.13;;;3.63;;
13435;SDS011;6790;49.520;8.504;2022-09-02T06:40:35;3.47;;;3.07;;
13435;SDS011;6790;49.520;8.504;2022-09-02T06:43:01;3.87;;;3.47;;
13435;SDS011;6790;49.520;8.504;2022-09-02T06:45:27;4.60;;;2.97;;
13435;SDS011;6790;49.520;8.504;2022-09-02T06:47:55;5.23;;;2.80;;
13435;SDS011;6790;49.520;8.504;2022-09-02T06:50:21;2.63;;;2.33;;
13435;SDS011;6790;49.520;8.504;2022-09-02T06:52:46;2.40;;;2.20;;
13435;SDS011;6790;49.520;8.504;2022-09-02T06:55:12;4.20;;;2.57;;
13435;SDS011;6790;49.520;8.504;2022-09-02T06:57:40;4.27;;;2.60;;
13435;SDS011;6790;49.520;8.504;2022-09-02T07:00:06;2.13;;;1.93;;
13435;SDS011;6790;49.520;8.504;2022-09-02T07:02:34;2.30;;;2.10;;
13435;SDS011;6790;49.520;8.504;2022-09-02T07:05:01;2.57;;;2.07;;
13435;SDS011;6790;49.520;8.504;2022-09-02T07:07:35;4.27;;;2.33;;
13435;SDS011;6790;49.520;8.504;2022-09-02T07:10:04;5.07;;;2.30;;
13435;SDS011;6790;49.520;8.504;2022-09-02T07:12:33;5.60;;;2.37;;
13435;SDS011;6790;49.520;8.504;2022-09-02T07:15:00;2.30;;;2.10;;
13435;SDS011;6790;49.520;8.504;2022-09-02T07:17:27;3.93;;;2.10;;
13435;SDS011;6790;49.520;8.504;2022-09-02T07:19:53;2.20;;;2.00;;
13435;SDS011;6790;49.520;8.504;2022-09-02T07:22:21;2.10;;;1.90;;
13435;SDS011;6790;49.520;8.504;2022-09-02T07:24:47;2.00;;;1.80;;
13435;SDS011;6790;49.520;8.504;2022-09-02T07:27:12;4.10;;;2.10;;
13435;SDS011;6790;49.520;8.504;2022-09-02T07:29:39;2.60;;;2.27;;
13435;SDS011;6790;49.520;8.504;2022-09-02T07:32:08;2.73;;;1.83;;
13435;SDS011;6790;49.520;8.504;2022-09-02T07:34:34;4.80;;;2.20;;
13435;SDS011;6790;49.520;8.504;2022-09-02T07:37:00;2.20;;;2.00;;
13435;SDS011;6790;49.520;8.504;2022-09-02T07:39:26;2.43;;;1.83;;
13435;SDS011;6790;49.520;8.504;2022-09-02T07:41:52;3.40;;;2.10;;
13435;SDS011;6790;49.520;8.504;2022-09-02T07:44:18;2.63;;;2.07;;
13435;SDS011;6790;49.520;8.504;2022-09-02T07:46:45;2.47;;;2.00;;
13435;SDS011;6790;49.520;8.504;2022-09-02T07:49:12;2.70;;;2.20;;
13435;SDS011;6790;49.520;8.504;2022-09-02T07:51:41;1.80;;;1.70;;
13435;SDS011;6790;49.520;8.504;2022-09-02T07:54:13;3.63;;;1.90;;
13435;SDS011;6790;49.520;8.504;2022-09-02T07:56:39;2.30;;;2.10;;
13435;SDS011;6790;49.520;8.504;2022-09-02T07:59:04;2.13;;;1.75;;
13435;SDS011;6790;49.520;8.504;2022-09-02T08:01:30;2.90;;;1.90;;
13435;SDS011;6790;49.520;8.504;2022-09-02T08:03:56;2.17;;;1.98;;
13435;SDS011;6790;49.520;8.504;2022-09-02T08:06:22;2.95;;;2.00;;
13435;SDS011;6790;49.520;8.504;2022-09-02T08:08:51;2.10;;;1.90;;
13435;SDS011;6790;49.520;8.504;2022-09-02T08:11:18;2.97;;;2.03;;
13435;SDS011;6790;49.520;8.504;2022-09-02T08:13:44;2.42;;;2.00;;
13435;SDS011;6790;49.520;8.504;2022-09-02T08:16:10;3.85;;;2.60;;
13435;SDS011;6790;49.520;8.504;2022-09-02T08:18:36;6.63;;;2.80;;
13435;SDS011;6790;49.520;8.504;2022-09-02T08:21:02;3.45;;;2.25;;
13435;SDS011;6790;49.520;8.504;2022-09-02T08:23:28;5.57;;;1.95;;
13435;SDS011;6790;49.520;8.504;2022-09-02T08:25:54;3.00;;;2.10;;
13435;SDS011;6790;49.520;8.504;2022-09-02T08:28:23;4.45;;;2.00;;
13435;SDS011;6790;49.520;8.504;2022-09-02T08:30:48;4.03;;;1.80;;
13435;SDS011;6790;49.520;8.504;2022-09-02T08:33:15;2.00;;;1.80;;
13435;SDS011;6790;49.520;8.504;2022-09-02T08:35:40;2.20;;;1.77;;
13435;SDS011;6790;49.520;8.504;2022-09-02T08:38:06;3.15;;;2.03;;
13435;SDS011;6790;49.520;8.504;2022-09-02T08:40:35;3.15;;;2.00;;
13435;SDS011;6790;49.520;8.504;2022-09-02T08:43:12;2.78;;;1.92;;
13435;SDS011;6790;49.520;8.504;2022-09-02T08:46:04;3.25;;;2.20;;
13435;SDS011;6790;49.520;8.504;2022-09-02T08:54:04;2.80;;;2.03;;
13435;SDS011;6790;49.520;8.504;2022-09-02T08:56:57;3.00;;;1.83;;
13435;SDS011;6790;49.520;8.504;2022-09-02T08:59:24;2.22;;;1.80;;
13435;SDS011;6790;49.520;8.504;2022-09-02T09:01:54;1.85;;;1.75;;
13435;SDS011;6790;49.520;8.504;2022-09-02T09:11:04;2.45;;;2.13;;
13435;SDS011;6790;49.520;8.504;2022-09-02T09:14:01;8.43;;;2.00;;
13435;SDS011;6790;49.520;8.504;2022-09-02T09:19:42;1.83;;;1.70;;
13435;SDS011;6790;49.520;8.504;2022-09-02T09:22:19;1.85;;;1.70;;
13435;SDS011;6790;49.520;8.504;2022-09-02T09:24:50;1.58;;;1.48;;
13435;SDS011;6790;49.520;8.504;2022-09-02T09:27:19;2.97;;;1.90;;
13435;SDS011;6790;49.520;8.504;2022-09-02T09:29:50;1.90;;;1.75;;
13435;SDS011;6790;49.520;8.504;2022-09-02T09:42:47;1.70;;;1.60;;
13435;SDS011;6790;49.520;8.504;2022-09-02T09:45:17;2.47;;;1.65;;
13435;SDS011;6790;49.520;8.504;2022-09-02T09:51:25;1.70;;;1.60;;
13435;SDS011;6790;49.520;8.504;2022-09-02T09:53:27;1.85;;;1.60;;
13435;SDS011;6790;49.520;8.504;2022-09-02T09:55:57;1.50;;;1.40;;
13435;SDS011;6790;49.520;8.504;2022-09-02T09:58:50;1.83;;;1.67;;
13435;SDS011;6790;49.520;8.504;2022-09-02T10:01:31;2.08;;;1.80;;
13435;SDS011;6790;49.520;8.504;2022-09-02T10:03:59;3.55;;;1.60;;
13435;SDS011;6790;49.520;8.504;2022-09-02T10:09:03;2.75;;;1.65;;
13435;SDS011;6790;49.520;8.504;2022-09-02T10:11:53;1.60;;;1.50;;
13435;SDS011;6790;49.520;8.504;2022-09-02T10:14:26;1.65;;;1.52;;
13435;SDS011;6790;49.520;8.504;2022-09-02T10:17:16;1.83;;;1.50;;
13435;SDS011;6790;49.520;8.504;2022-09-02T10:20:11;3.83;;;1.52;;
13435;SDS011;6790;49.520;8.504;2022-09-02T10:25:39;1.60;;;1.50;;
13435;SDS011;6790;49.520;8.504;2022-09-02T10:28:25;3.22;;;1.60;;
13435;SDS011;6790;49.520;8.504;2022-09-02T10:31:33;2.20;;;1.50;;
13435;SDS011;6790;49.520;8.504;2022-09-02T10:42:48;1.60;;;1.50;;
13435;SDS011;6790;49.520;8.504;2022-09-02T10:50:25;1.58;;;1.30;;
13435;SDS011;6790;49.520;8.504;2022-09-02T10:55:44;1.80;;;1.60;;
13435;SDS011;6790;49.520;8.504;2022-09-02T11:01:40;3.83;;;1.60;;
13435;SDS011;6790;49.520;8.504;2022-09-02T11:04:16;4.47;;;1.60;;
13435;SDS011;6790;49.520;8.504;2022-09-02T11:06:53;1.60;;;1.50;;
13435;SDS011;6790;49.520;8.504;2022-09-02T11:12:06;2.28;;;1.70;;
13435;SDS011;6790;49.520;8.504;2022-09-02T11:14:34;2.28;;;1.52;;
13435;SDS011;6790;49.520;8.504;2022-09-02T11:17:18;2.80;;;1.73;;
13435;SDS011;6790;49.520;8.504;2022-09-02T11:23:48;2.15;;;1.50;;
13435;SDS011;6790;49.520;8.504;2022-09-02T11:27:13;2.05;;;1.50;;
13435;SDS011;6790;49.520;8.504;2022-09-02T11:30:14;1.60;;;1.50;;
13435;SDS011;6790;49.520;8.504;2022-09-02T11:35:20;1.80;;;1.70;;
13435;SDS011;6790;49.520;8.504;2022-09-02T11:37:58;2.63;;;1.30;;
13435;SDS011;6790;49.520;8.504;2022-09-02T11:43:45;2.88;;;1.50;;
13435;SDS011;6790;49.520;8.504;2022-09-02T11:46:23;1.83;;;1.70;;
13435;SDS011;6790;49.520;8.504;2022-09-02T11:57:59;3.50;;;1.42;;
13435;SDS011;6790;49.520;8.504;2022-09-02T12:00:34;1.67;;;1.50;;
13435;SDS011;6790;49.520;8.504;2022-09-02T12:03:23;1.73;;;1.60;;
13435;SDS011;6790;49.520;8.504;2022-09-02T12:11:07;1.83;;;1.65;;
13435;SDS011;6790;49.520;8.504;2022-09-02T12:13:40;1.73;;;1.60;;
13435;SDS011;6790;49.520;8.504;2022-09-02T12:21:17;1.58;;;1.45;;
13435;SDS011;6790;49.520;8.504;2022-09-02T12:24:06;2.10;;;1.45;;
13435;SDS011;6790;49.520;8.504;2022-09-02T12:29:10;2.10;;;1.40;;
13435;SDS011;6790;49.520;8.504;2022-09-02T12:31:43;1.40;;;1.30;;
13435;SDS011;6790;49.520;8.504;2022-09-02T12:36:54;3.30;;;1.67;;
13435;SDS011;6790;49.520;8.504;2022-09-02T12:47:22;1.98;;;1.58;;
13435;SDS011;6790;49.520;8.504;2022-09-02T12:58:38;3.03;;;1.55;;
13435;SDS011;6790;49.520;8.504;2022-09-02T13:13:13;7.10;;;1.85;;
13435;SDS011;6790;49.520;8.504;2022-09-02T13:16:07;2.95;;;1.67;;
13435;SDS011;6790;49.520;8.504;2022-09-02T13:19:18;2.00;;;1.50;;
13435;SDS011;6790;49.520;8.504;2022-09-02T13:24:39;4.80;;;1.70;;
13435;SDS011;6790;49.520;8.504;2022-09-02T13:30:19;1.80;;;1.50;;
13435;SDS011;6790;49.520;8.504;2022-09-02T13:33:19;1.52;;;1.40;;
13435;SDS011;6790;49.520;8.504;2022-09-02T13:35:45;1.70;;;1.42;;
13435;SDS011;6790;49.520;8.504;2022-09-02T13:38:21;2.10;;;1.75;;
13435;SDS011;6790;49.520;8.504;2022-09-02T13:40:48;1.50;;;1.40;;
13435;SDS011;6790;49.520;8.504;2022-09-02T13:45:48;1.70;;;1.50;;
13435;SDS011;6790;49.520;8.504;2022-09-02T13:48:17;2.10;;;1.40;;
13435;SDS011;6790;49.520;8.504;2022-09-02T13:50:55;3.05;;;1.55;;
13435;SDS011;6790;49.520;8.504;2022-09-02T13:53:29;6.00;;;1.65;;
13435;SDS011;6790;49.520;8.504;2022-09-02T13:56:02;2.08;;;1.45;;
13435;SDS011;6790;49.520;8.504;2022-09-02T13:58:40;1.40;;;1.30;;
13435;SDS011;6790;49.520;8.504;2022-09-02T14:01:23;2.60;;;1.52;;
13435;SDS011;6790;49.520;8.504;2022-09-02T14:03:53;5.63;;;2.20;;
13435;SDS011;6790;49.520;8.504;2022-09-02T14:06:24;4.00;;;1.50;;
13435;SDS011;6790;49.520;8.504;2022-09-02T14:08:55;3.97;;;1.45;;
13435;SDS011;6790;49.520;8.504;2022-09-02T14:11:25;2.47;;;1.58;;
13435;SDS011;6790;49.520;8.504;2022-09-02T14:13:52;2.92;;;1.40;;
13435;SDS011;6790;49.520;8.504;2022-09-02T14:16:27;1.70;;;1.60;;
13435;SDS011;6790;49.520;8.504;2022-09-02T14:19:08;1.90;;;1.50;;
13435;SDS011;6790;49.520;8.504;2022-09-02T14:21:35;1.60;;;1.50;;
13435;SDS011;6790;49.520;8.504;2022-09-02T14:24:10;2.08;;;1.60;;
13435;SDS011;6790;49.520;8.504;2022-09-02T14:26:42;1.42;;;1.30;;
13435;SDS011;6790;49.520;8.504;2022-09-02T14:29:11;1.60;;;1.50;;
13435;SDS011;6790;49.520;8.504;2022-09-02T14:31:40;1.45;;;1.35;;
13435;SDS011;6790;49.520;8.504;2022-09-02T14:35:06;1.77;;;1.42;;
13435;SDS011;6790;49.520;8.504;2022-09-02T14:37:13;1.70;;;1.42;;
13435;SDS011;6790;49.520;8.504;2022-09-02T14:42:41;1.58;;;1.48;;
13435;SDS011;6790;49.520;8.504;2022-09-02T14:45:10;1.55;;;1.45;;
13435;SDS011;6790;49.520;8.504;2022-09-02T14:47:37;21.05;;;5.05;;
13435;SDS011;6790;49.520;8.504;2022-09-02T14:50:08;3.90;;;2.10;;
13435;SDS011;6790;49.520;8.504;2022-09-02T14:52:36;2.55;;;1.67;;
13435;SDS011;6790;49.520;8.504;2022-09-02T14:58:13;2.40;;;1.50;;
13435;SDS011;6790;49.520;8.504;2022-09-02T15:00:40;1.63;;;1.40;;
13435;SDS011;6790;49.520;8.504;2022-09-02T15:03:12;2.10;;;1.50;;
13435;SDS011;6790;49.520;8.504;2022-09-02T15:05:40;2.22;;;1.52;;
13435;SDS011;6790;49.520;8.504;2022-09-02T15:08:06;1.48;;;1.38;;
13435;SDS011;6790;49.520;8.504;2022-09-02T15:10:33;1.77;;;1.40;;
13435;SDS011;6790;49.520;8.504;2022-09-02T15:12:59;2.08;;;1.58;;
13435;SDS011;6790;49.520;8.504;2022-09-02T15:15:25;1.30;;;1.20;;
13435;SDS011;6790;49.520;8.504;2022-09-02T15:17:51;3.35;;;1.60;;
13435;SDS011;6790;49.520;8.504;2022-09-02T15:20:18;3.00;;;1.50;;
13435;SDS011;6790;49.520;8.504;2022-09-02T15:22:45;1.48;;;1.38;;
13435;SDS011;6790;49.520;8.504;2022-09-02T15:25:11;4.35;;;1.60;;
13435;SDS011;6790;49.520;8.504;2022-09-02T15:27:37;1.75;;;1.48;;
13435;SDS011;6790;49.520;8.504;2022-09-02T15:30:03;2.30;;;1.67;;
13435;SDS011;6790;49.520;8.504;2022-09-02T15:32:31;1.42;;;1.33;;
13435;SDS011;6790;49.520;8.504;2022-09-02T15:34:56;1.95;;;1.40;;
13435;SDS011;6790;49.520;8.504;2022-09-02T15:37:23;2.13;;;1.50;;
13435;SDS011;6790;49.520;8.504;2022-09-02T15:39:50;1.67;;;1.48;;
13435;SDS011;6790;49.520;8.504;2022-09-02T15:42:15;1.73;;;1.48;;
13435;SDS011;6790;49.520;8.504;2022-09-02T15:44:42;1.30;;;1.20;;
13435;SDS011;6790;49.520;8.504;2022-09-02T15:47:08;1.98;;;1.40;;
13435;SDS011;6790;49.520;8.504;2022-09-02T15:49:34;1.70;;;1.50;;
13435;SDS011;6790;49.520;8.504;2022-09-02T15:51:59;3.20;;;1.33;;
13435;SDS011;6790;49.520;8.504;2022-09-02T15:54:26;4.03;;;1.48;;
13435;SDS011;6790;49.520;8.504;2022-09-02T15:56:53;2.00;;;1.67;;
13435;SDS011;6790;49.520;8.504;2022-09-02T15:59:22;1.90;;;1.70;;
13435;SDS011;6790;49.520;8.504;2022-09-02T16:01:49;1.90;;;1.70;;
13435;SDS011;6790;49.520;8.504;2022-09-02T16:04:19;6.07;;;5.30;;
13435;SDS011;6790;49.520;8.504;2022-09-02T16:06:46;5.18;;;4.68;;
13435;SDS011;6790;49.520;8.504;2022-09-02T16:09:14;14.23;;;9.57;;
13435;SDS011;6790;49.520;8.504;2022-09-02T16:11:42;2.40;;;2.20;;
13435;SDS011;6790;49.520;8.504;2022-09-02T16:14:10;4.22;;;1.55;;
13435;SDS011;6790;49.520;8.504;2022-09-02T16:16:36;1.75;;;1.50;;
13435;SDS011;6790;49.520;8.504;2022-09-02T16:19:04;5.40;;;1.40;;
13435;SDS011;6790;49.520;8.504;2022-09-02T16:21:31;3.05;;;1.65;;
13435;SDS011;6790;49.520;8.504;2022-09-02T16:23:57;1.75;;;1.40;;
13435;SDS011;6790;49.520;8.504;2022-09-02T16:28:53;2.55;;;1.80;;
13435;SDS011;6790;49.520;8.504;2022-09-02T16:31:29;1.88;;;1.50;;
13435;SDS011;6790;49.520;8.504;2022-09-02T16:36:28;1.63;;;1.33;;
13435;SDS011;6790;49.520;8.504;2022-09-02T16:38:56;1.50;;;1.40;;
13435;SDS011;6790;49.520;8.504;2022-09-02T16:44:06;2.70;;;1.70;;
13435;SDS011;6790;49.520;8.504;2022-09-02T16:46:35;1.45;;;1.35;;
13435;SDS011;6790;49.520;8.504;2022-09-02T16:49:04;4.40;;;1.30;;
13435;SDS011;6790;49.520;8.504;2022-09-02T16:51:30;2.95;;;1.40;;
13435;SDS011;6790;49.520;8.504;2022-09-02T16:53:58;2.15;;;1.80;;
13435;SDS011;6790;49.520;8.504;2022-09-02T16:56:27;1.30;;;1.20;;
13435;SDS011;6790;49.520;8.504;2022-09-02T16:58:54;1.98;;;1.50;;
13435;SDS011;6790;49.520;8.504;2022-09-02T17:01:20;1.60;;;1.50;;
13435;SDS011;6790;49.520;8.504;2022-09-02T17:03:47;10.98;;;4.43;;
13435;SDS011;6790;49.520;8.504;2022-09-02T17:06:14;10.75;;;5.63;;
13435;SDS011;6790;49.520;8.504;2022-09-02T17:08:40;4.88;;;3.08;;
13435;SDS011;6790;49.520;8.504;2022-09-02T17:13:42;3.63;;;1.80;;
13435;SDS011;6790;49.520;8.504;2022-09-02T17:16:10;3.72;;;2.10;;
13435;SDS011;6790;49.520;8.504;2022-09-02T17:18:36;5.22;;;1.80;;
13435;SDS011;6790;49.520;8.504;2022-09-02T17:21:09;4.57;;;2.95;;
13435;SDS011;6790;49.520;8.504;2022-09-02T17:23:44;3.90;;;2.40;;
13435;SDS011;6790;49.520;8.504;2022-09-02T17:26:10;4.85;;;1.90;;
13435;SDS011;6790;49.520;8.504;2022-09-02T17:28:36;5.03;;;2.45;;
13435;SDS011;6790;49.520;8.504;2022-09-02T17:33:57;2.08;;;1.88;;
13435;SDS011;6790;49.520;8.504;2022-09-02T17:36:29;4.55;;;1.63;;
13435;SDS011;6790;49.520;8.504;2022-09-02T17:39:00;2.70;;;1.90;;
13435;SDS011;6790;49.520;8.504;2022-09-02T17:41:32;2.95;;;1.90;;
13435;SDS011;6790;49.520;8.504;2022-09-02T17:44:16;5.28;;;2.08;;
13435;SDS011;6790;49.520;8.504;2022-09-02T17:46:42;4.18;;;2.08;;
13435;SDS011;6790;49.520;8.504;2022-09-02T17:49:09;2.50;;;1.80;;
13435;SDS011;6790;49.520;8.504;2022-09-02T17:51:36;2.85;;;1.85;;